Casper, WY (82646)

7:34 PM MDT on October 24, 2014 (GMT -0600)
North of Casper, WY | Change Station
CLOSE
Current Station
Personal Weather Station
Location: Bar Nunn, WY
Elevation: 5276 ft
Nearby Weather Stations

Elev 5276 ft 42.91 °N, 106.35 °W | Updated 4 minutes ago

Clear
Clear
59.7 °F
Feels Like 59.7 °F
N
6.4
Wind Variable Wind from North
Gusts 8.0 mph

Today
High -- | Low -- °F
--% Chance of Precip.
Yesterday
High -- | Low -- °F
Precip. -- in
7:30 AM 6:08 PM
New Moon, 1% visible
Pressure 30.01 in
Visibility 10.0 miles
Clouds Clear
Dew Point 22 °F
Humidity 24%
Rainfall 0.00 in
Snow Depth Not available.
UV 0 out of 12
Pollen 2.70 out of 12
Air Quality Not available.
Flu Activity Sporadic
METAR KCPR 250053Z 21006KT 10SM CLR 14/M07 A3011 RMK AO2 SLP161 T01391067

More Conditions Fewer Conditions

Pressure 30.01 in
Visibility 10.0 miles
Clouds Clear
Dew Point 22 °F
Humidity 24%
Rainfall 0.00 in
Snow Depth Not available.
UV 0 out of 12
Pollen 2.70 out of 12
Air Quality Not available.
Flu Activity Sporadic
METAR KCPR 250053Z 21006KT 10SM CLR 14/M07 A3011 RMK AO2 SLP161 T01391067

More Conditions Fewer Conditions

10-Day Weather Forecast

Almanac

Astronomy

Oct. 24, 2014 Rise Set
Actual Time 7:30 AM MDT 6:08 PM MDT
Civil Twilight 7:01 AM MDT 6:37 PM MDT
Nautical Twilight 6:27 AM MDT 7:10 PM MDT
Astronomical Twilight 5:54 AM MDT 7:43 PM MDT
Moon 8:12 AM MDT (10/24) 6:49 PM MDT (10/24)
Length of Visible Light 11h 36m
Length of Day
10h 38m
Tomorrow will be 2m 43s shorter.
New Moon, 1% of the Moon is Illuminated
Today
New Moon
Oct 30
First Quarter
Nov 6
Full
Nov 14
Last Quarter
Nov 22
New

Today's Extremes

State Highs State Lows

Community

WunderPhotos

Upload Photos

1,764,749 photos uploaded!

WunderBlogs® & News

Nearby

Snow Depth

Station Depth Elevation
Reno Hill 0 in 8500 ft
Grave Springs 0 in 8550 ft
Middle Powder 2 in 7760 ft
Laprele Creek 0 in 8375 ft
Bear Trap Meadow 0 in 8200 ft

Earthquake Activity

City Distance Mag. Time & Date
No recent earthquake activity has been reported nearby.
Minimum magnitude displayed is 2.5.

Coastal Water Temperatures

Place Temperature
No Stations Reporting

Nearby Weather Stations